createdAt,value
2023-05-14T00:01:43.201Z,14.97
2023-05-14T00:04:10.572Z,14.93
2023-05-14T00:06:37.604Z,14.90
2023-05-14T00:09:04.700Z,14.87
2023-05-14T00:11:31.781Z,14.84
2023-05-14T00:13:58.892Z,14.74
2023-05-14T00:16:26.298Z,14.72
2023-05-14T00:18:53.435Z,14.74
2023-05-14T00:21:20.669Z,14.63
2023-05-14T00:23:47.707Z,14.56
2023-05-14T00:26:14.743Z,14.59
2023-05-14T00:28:42.157Z,14.56
2023-05-14T00:31:09.626Z,14.53
2023-05-14T00:33:36.780Z,14.44
2023-05-14T00:36:04.491Z,14.44
2023-05-14T00:38:31.572Z,14.41
2023-05-14T00:40:58.745Z,14.41
2023-05-14T00:43:26.216Z,14.35
2023-05-14T00:45:54.652Z,14.20
2023-05-14T00:48:22.864Z,14.23
2023-05-14T00:50:51.207Z,14.13
2023-05-14T00:53:19.370Z,14.18
2023-05-14T00:55:48.718Z,14.18
2023-05-14T00:58:15.819Z,14.16
2023-05-14T01:00:42.893Z,14.08
2023-05-14T01:03:10.202Z,14.01
2023-05-14T01:06:01.136Z,13.99
2023-05-14T01:09:05.195Z,13.93
2023-05-14T01:12:08.798Z,13.93
2023-05-14T01:14:54.494Z,13.87
2023-05-14T01:17:25.108Z,13.77
2023-05-14T01:19:52.736Z,13.81
2023-05-14T01:22:20.208Z,13.74
2023-05-14T01:24:47.467Z,13.72
2023-05-14T01:27:21.967Z,13.71
2023-05-14T01:29:58.062Z,13.70
2023-05-14T01:32:26.697Z,13.65
2023-05-14T01:34:58.913Z,13.63
2023-05-14T01:37:28.469Z,13.59
2023-05-14T01:39:56.910Z,13.59
2023-05-14T01:42:24.196Z,13.52
2023-05-14T01:44:52.033Z,13.46
2023-05-14T01:47:19.107Z,13.50
2023-05-14T01:49:46.249Z,13.43
2023-05-14T01:52:13.364Z,13.42
2023-05-14T01:54:43.393Z,13.33
2023-05-14T01:57:10.495Z,13.26
2023-05-14T01:59:37.523Z,13.29
2023-05-14T02:02:04.621Z,13.23
2023-05-14T02:04:31.753Z,13.26
2023-05-14T02:06:58.726Z,13.12
2023-05-14T02:09:25.911Z,12.99
2023-05-14T02:11:53.091Z,12.99
2023-05-14T02:14:20.127Z,12.97
2023-05-14T02:16:47.109Z,12.92
2023-05-14T02:19:14.552Z,12.80
2023-05-14T02:21:41.985Z,12.76
2023-05-14T02:24:09.154Z,12.75
2023-05-14T02:26:36.480Z,12.70
2023-05-14T02:29:03.879Z,12.70
2023-05-14T02:31:31.041Z,12.59
2023-05-14T02:33:58.150Z,12.44
2023-05-14T02:36:25.291Z,12.47
2023-05-14T02:38:52.329Z,12.52
2023-05-14T02:41:19.459Z,12.40
2023-05-14T02:43:46.832Z,12.42
2023-05-14T02:46:14.053Z,12.42
2023-05-14T02:48:41.276Z,12.43
2023-05-14T02:51:08.312Z,12.43
2023-05-14T02:53:35.366Z,12.43
2023-05-14T02:56:02.640Z,12.36
2023-05-14T02:58:30.059Z,12.34
2023-05-14T03:00:57.476Z,12.27
2023-05-14T03:03:25.536Z,12.23
2023-05-14T03:05:52.962Z,12.26
2023-05-14T03:08:20.269Z,12.29
2023-05-14T03:10:47.470Z,12.22
2023-05-14T03:13:18.129Z,12.18
2023-05-14T03:15:45.699Z,12.23
2023-05-14T03:18:14.032Z,12.16
2023-05-14T03:20:41.931Z,12.07
2023-05-14T03:23:09.228Z,12.03
2023-05-14T03:25:36.489Z,12.07
2023-05-14T03:28:03.832Z,12.08
2023-05-14T03:30:30.987Z,12.00
2023-05-14T03:32:59.027Z,11.97
2023-05-14T03:35:26.334Z,11.90
2023-05-14T03:37:53.472Z,11.92
2023-05-14T03:40:21.630Z,11.97
2023-05-14T03:42:48.897Z,11.91
2023-05-14T03:45:16.269Z,11.97
2023-05-14T03:47:43.417Z,11.89
2023-05-14T03:50:10.621Z,11.90
2023-05-14T03:52:37.705Z,11.85
2023-05-14T03:55:05.137Z,11.90
2023-05-14T03:57:32.216Z,11.86
2023-05-14T03:59:59.392Z,11.90
2023-05-14T04:02:27.142Z,11.92
2023-05-14T04:04:54.379Z,12.01
2023-05-14T04:07:21.631Z,12.03
2023-05-14T04:09:49.054Z,12.10
2023-05-14T04:12:16.283Z,12.10
2023-05-14T04:14:43.451Z,12.17
2023-05-14T04:17:10.633Z,12.23
2023-05-14T04:19:38.009Z,12.25
2023-05-14T04:22:05.398Z,12.32
2023-05-14T04:24:32.452Z,12.33
2023-05-14T04:26:59.867Z,12.36
2023-05-14T04:29:27.302Z,12.49
2023-05-14T04:31:54.593Z,12.53
2023-05-14T04:34:22.639Z,12.59
2023-05-14T04:36:49.783Z,12.61
2023-05-14T04:39:17.555Z,12.61
2023-05-14T04:41:44.647Z,12.59
2023-05-14T04:44:13.251Z,12.65
2023-05-14T04:46:40.678Z,12.78
2023-05-14T04:49:08.252Z,12.80
2023-05-14T04:51:35.823Z,12.90
2023-05-14T04:54:02.961Z,12.99
2023-05-14T04:56:30.321Z,13.11
2023-05-14T04:58:57.358Z,13.28
2023-05-14T05:01:24.956Z,13.26
2023-05-14T05:03:52.544Z,13.28
2023-05-14T05:06:20.014Z,13.33
2023-05-14T05:08:47.252Z,13.39
2023-05-14T05:11:14.450Z,13.52
2023-05-14T05:13:41.514Z,13.59
2023-05-14T05:16:08.777Z,13.62
2023-05-14T05:18:35.993Z,13.78
2023-05-14T05:21:03.418Z,13.80
2023-05-14T05:23:30.566Z,13.93
2023-05-14T05:25:57.594Z,13.98
2023-05-14T05:28:24.788Z,14.06
2023-05-14T05:30:51.929Z,14.17
2023-05-14T05:33:20.216Z,14.19
2023-05-14T05:35:48.319Z,14.30
2023-05-14T05:38:15.864Z,14.32
2023-05-14T05:40:43.007Z,14.37
2023-05-14T05:43:10.396Z,14.49
2023-05-14T05:45:37.756Z,14.61
2023-05-14T05:48:06.018Z,14.71
2023-05-14T05:50:33.207Z,14.84
2023-05-14T05:53:00.405Z,14.90
2023-05-14T05:55:28.779Z,14.97
2023-05-14T05:57:56.211Z,14.98
2023-05-14T06:00:24.080Z,15.04
2023-05-14T06:02:51.261Z,15.11
2023-05-14T06:05:19.337Z,15.29
2023-05-14T06:07:46.788Z,15.30
2023-05-14T06:10:14.269Z,15.31
2023-05-14T06:12:41.300Z,15.42
2023-05-14T06:15:08.629Z,15.32
2023-05-14T06:17:35.643Z,15.50
2023-05-14T06:20:02.758Z,15.64
2023-05-14T06:22:29.767Z,15.70
2023-05-14T06:24:58.069Z,15.68
2023-05-14T06:27:25.106Z,15.71
2023-05-14T06:29:52.219Z,15.91
2023-05-14T06:32:19.433Z,16.00
2023-05-14T06:34:46.559Z,16.00
2023-05-14T06:37:13.636Z,16.14
2023-05-14T06:39:49.831Z,16.23
2023-05-14T06:42:17.480Z,16.37
2023-05-14T06:44:45.253Z,16.52
2023-05-14T06:47:12.270Z,16.65
2023-05-14T06:49:39.405Z,16.72
2023-05-14T06:52:06.824Z,16.67
2023-05-14T06:54:34.168Z,16.83
2023-05-14T06:57:01.395Z,16.90
2023-05-14T06:59:28.528Z,16.95
2023-05-14T07:01:56.025Z,17.06
2023-05-14T07:04:23.211Z,17.16
2023-05-14T07:06:50.502Z,17.24
2023-05-14T07:09:17.685Z,17.29
2023-05-14T07:11:45.005Z,17.49
2023-05-14T07:14:12.113Z,17.53
2023-05-14T07:16:39.348Z,17.68
2023-05-14T07:19:06.551Z,17.83
2023-05-14T07:21:34.694Z,18.05
2023-05-14T07:24:02.340Z,18.03
2023-05-14T07:26:29.434Z,18.19
2023-05-14T07:28:56.471Z,18.35
2023-05-14T07:31:23.607Z,18.46
2023-05-14T07:33:50.821Z,18.63
2023-05-14T07:36:17.877Z,18.67
2023-05-14T07:38:45.086Z,18.92
2023-05-14T07:41:12.584Z,18.88
2023-05-14T07:43:40.503Z,19.05
2023-05-14T07:46:07.597Z,19.12
2023-05-14T07:48:34.654Z,19.28
2023-05-14T07:51:02.208Z,19.45
2023-05-14T07:53:29.572Z,19.59
2023-05-14T07:55:56.748Z,19.73
2023-05-14T07:58:25.053Z,19.84
2023-05-14T08:00:52.193Z,19.81
2023-05-14T08:03:19.299Z,19.96
2023-05-14T08:05:46.449Z,19.96
2023-05-14T08:08:13.578Z,20.07
2023-05-14T08:10:40.835Z,20.18
2023-05-14T08:13:07.867Z,20.19
2023-05-14T08:15:35.016Z,20.29
2023-05-14T08:18:03.960Z,20.36
2023-05-14T08:20:31.470Z,20.39
2023-05-14T08:22:58.637Z,20.52
2023-05-14T08:25:25.712Z,20.47
2023-05-14T08:27:54.230Z,20.63
2023-05-14T08:30:22.843Z,20.61
2023-05-14T08:32:50.206Z,20.76
2023-05-14T08:35:18.053Z,20.87
2023-05-14T08:37:45.548Z,20.97
2023-05-14T08:40:12.955Z,20.98
2023-05-14T08:42:44.821Z,21.02
2023-05-14T08:45:20.311Z,21.12
2023-05-14T08:47:51.596Z,21.09
2023-05-14T08:50:21.902Z,21.33
2023-05-14T08:52:50.368Z,21.32
2023-05-14T08:55:17.656Z,21.39
2023-05-14T08:57:44.853Z,21.50
2023-05-14T09:00:12.550Z,21.64
2023-05-14T09:02:40.768Z,21.71
2023-05-14T09:05:09.348Z,21.83
2023-05-14T09:07:36.765Z,22.00
2023-05-14T09:10:04.734Z,22.08
2023-05-14T09:12:32.097Z,22.10
2023-05-14T09:14:59.195Z,22.16
2023-05-14T09:17:29.931Z,22.17
2023-05-14T09:19:57.393Z,22.20
2023-05-14T09:22:24.615Z,22.25
2023-05-14T09:25:09.762Z,22.35
2023-05-14T09:27:37.274Z,22.44
2023-05-14T09:30:06.062Z,22.26
2023-05-14T09:32:40.503Z,22.39
2023-05-14T09:35:17.040Z,22.60
2023-05-14T09:37:52.637Z,22.59
2023-05-14T09:40:21.335Z,22.69
2023-05-14T09:42:49.327Z,22.84
2023-05-14T09:45:17.311Z,23.02
2023-05-14T09:47:45.640Z,22.95
2023-05-14T09:50:12.879Z,22.93
2023-05-14T09:52:40.177Z,23.02
2023-05-14T09:55:07.927Z,22.93
2023-05-14T09:57:35.532Z,22.98
2023-05-14T10:00:02.922Z,23.08
2023-05-14T10:02:37.947Z,23.26
2023-05-14T10:05:07.110Z,23.28
2023-05-14T10:07:44.745Z,23.29
2023-05-14T10:10:16.707Z,23.33
2023-05-14T10:12:52.928Z,23.17
2023-05-14T10:15:26.767Z,23.18
2023-05-14T10:18:03.600Z,23.55
2023-05-14T10:20:31.317Z,23.89
2023-05-14T10:22:59.133Z,24.24
2023-05-14T10:25:26.980Z,24.62
2023-05-14T10:27:54.631Z,25.22
2023-05-14T10:30:25.314Z,25.36
2023-05-14T10:33:06.768Z,25.52
2023-05-14T10:36:04.837Z,25.62
2023-05-14T10:38:37.650Z,25.38
2023-05-14T10:41:07.128Z,25.03
2023-05-14T10:43:38.717Z,25.63
2023-05-14T10:46:06.852Z,25.84
2023-05-14T10:48:34.684Z,26.05
2023-05-14T10:51:04.725Z,26.43
2023-05-14T10:53:37.202Z,26.49
2023-05-14T10:56:09.544Z,26.63
2023-05-14T10:58:42.567Z,26.59
2023-05-14T11:01:11.667Z,27.10
2023-05-14T11:03:42.066Z,27.00
2023-05-14T11:06:11.982Z,26.72
2023-05-14T11:08:39.650Z,27.02
2023-05-14T11:11:07.846Z,27.50
2023-05-14T11:13:35.416Z,28.17
2023-05-14T11:16:11.946Z,28.79
2023-05-14T11:19:01.444Z,29.31
2023-05-14T11:21:29.071Z,28.09
2023-05-14T11:23:57.378Z,27.04
2023-05-14T11:26:24.541Z,26.61
2023-05-14T11:28:52.030Z,27.19
2023-05-14T11:31:19.445Z,26.42
2023-05-14T11:33:47.178Z,26.47
2023-05-14T11:36:14.943Z,26.14
2023-05-14T11:38:51.019Z,26.95
2023-05-14T11:41:21.087Z,27.29
2023-05-14T11:43:48.756Z,26.98
2023-05-14T11:46:19.562Z,26.68
2023-05-14T11:48:46.882Z,26.55
2023-05-14T11:51:14.040Z,26.68
2023-05-14T11:53:41.414Z,26.41
2023-05-14T11:56:09.889Z,25.81
2023-05-14T11:58:37.287Z,25.86
2023-05-14T12:01:04.917Z,25.54
2023-05-14T12:03:32.938Z,24.79
2023-05-14T12:06:02.703Z,24.36
2023-05-14T12:08:31.728Z,24.35
2023-05-14T12:11:00.823Z,24.22
2023-05-14T12:13:33.735Z,24.38
2023-05-14T12:16:05.607Z,24.20
2023-05-14T12:18:33.805Z,24.32
2023-05-14T12:21:10.493Z,24.15
2023-05-14T12:23:40.012Z,24.14
2023-05-14T12:26:09.038Z,24.37
2023-05-14T12:28:38.940Z,23.99
2023-05-14T12:31:06.555Z,24.18
2023-05-14T12:33:33.792Z,23.70
2023-05-14T12:36:20.310Z,23.49
2023-05-14T12:38:50.366Z,23.74
2023-05-14T12:41:18.315Z,23.57
2023-05-14T12:43:48.079Z,23.77
2023-05-14T12:46:16.146Z,23.96
2023-05-14T12:48:43.352Z,23.85
2023-05-14T12:51:10.664Z,24.25
2023-05-14T12:53:39.411Z,24.48
2023-05-14T12:56:06.815Z,24.50
2023-05-14T12:58:36.324Z,24.55
2023-05-14T13:01:03.701Z,24.66
2023-05-14T13:03:30.958Z,25.00
2023-05-14T13:05:59.064Z,25.42
2023-05-14T13:08:26.816Z,25.21
2023-05-14T13:10:55.103Z,25.38
2023-05-14T13:13:23.197Z,25.31
2023-05-14T13:15:52.935Z,25.22
2023-05-14T13:18:20.170Z,25.22
2023-05-14T13:20:48.200Z,25.49
2023-05-14T13:23:15.669Z,25.43
2023-05-14T13:25:42.906Z,25.54
2023-05-14T13:28:10.200Z,25.77
2023-05-14T13:30:37.438Z,25.81
2023-05-14T13:33:06.142Z,26.10
2023-05-14T13:35:34.725Z,26.55
2023-05-14T13:38:02.068Z,26.60
2023-05-14T13:40:29.323Z,26.63
2023-05-14T13:42:56.600Z,27.12
2023-05-14T13:45:23.949Z,27.01
2023-05-14T13:47:51.885Z,27.13
2023-05-14T13:50:19.152Z,27.40
2023-05-14T13:52:46.449Z,27.61
2023-05-14T13:55:13.578Z,28.38
2023-05-14T13:57:41.904Z,29.64
2023-05-14T14:00:09.606Z,29.74
2023-05-14T14:02:37.045Z,29.83
2023-05-14T14:05:05.464Z,30.55
2023-05-14T14:07:32.736Z,31.14
2023-05-14T14:10:03.858Z,32.24
2023-05-14T14:12:31.202Z,-138.62
2023-05-14T14:15:01.074Z,-138.62
2023-05-14T14:17:28.423Z,-138.62
2023-05-14T14:19:55.562Z,-138.62
2023-05-14T14:24:50.286Z,-138.62
2023-05-14T14:27:17.357Z,-138.62
2023-05-14T14:29:44.535Z,-138.62
2023-05-14T14:32:11.657Z,-138.62
2023-05-14T14:34:38.861Z,-138.62
2023-05-14T14:37:06.276Z,-138.62
2023-05-14T14:39:34.561Z,-138.62
2023-05-14T14:42:01.684Z,-138.62
2023-05-14T14:44:28.793Z,-138.62
2023-05-14T14:46:55.903Z,-138.62
2023-05-14T14:49:23.617Z,-138.62
2023-05-14T14:51:50.758Z,-138.62
2023-05-14T14:54:18.030Z,-138.62
2023-05-14T14:56:45.976Z,-138.62
2023-05-14T14:59:13.202Z,-138.62
2023-05-14T15:01:40.427Z,32.24
2023-05-14T15:04:07.556Z,25.83
2023-05-14T15:06:34.727Z,25.60
2023-05-14T15:09:02.236Z,25.38
2023-05-14T15:11:29.437Z,25.52
2023-05-14T15:13:56.589Z,25.44
2023-05-14T15:16:23.796Z,25.31
2023-05-14T15:18:51.074Z,24.79
2023-05-14T15:21:18.552Z,24.73
2023-05-14T15:23:45.741Z,24.63
2023-05-14T15:26:12.856Z,24.55
2023-05-14T15:28:40.027Z,24.54
2023-05-14T15:31:07.447Z,24.21
2023-05-14T15:33:36.457Z,24.51
2023-05-14T15:36:03.965Z,24.60
2023-05-14T15:38:31.359Z,24.65
2023-05-14T15:40:58.550Z,24.87
2023-05-14T15:43:25.977Z,25.09
2023-05-14T15:45:55.086Z,24.84
2023-05-14T15:48:22.256Z,24.80
2023-05-14T15:50:49.897Z,24.98
2023-05-14T15:53:17.646Z,25.01
2023-05-14T15:55:45.425Z,24.75
2023-05-14T15:58:13.290Z,24.31
2023-05-14T16:00:40.859Z,24.11
2023-05-14T16:03:08.212Z,23.85
2023-05-14T16:05:36.570Z,23.56
2023-05-14T16:08:03.855Z,23.32
2023-05-14T16:10:31.054Z,23.28
2023-05-14T16:12:58.276Z,23.13
2023-05-14T16:15:25.478Z,23.11
2023-05-14T16:17:52.799Z,23.25
2023-05-14T16:20:19.921Z,22.97
2023-05-14T16:22:46.999Z,22.98
2023-05-14T16:25:14.381Z,23.32
2023-05-14T16:27:41.648Z,23.42
2023-05-14T16:30:09.302Z,23.59
2023-05-14T16:32:36.508Z,23.45
2023-05-14T16:35:03.906Z,23.46
2023-05-14T16:37:31.649Z,23.69
2023-05-14T16:39:58.886Z,23.82
2023-05-14T16:42:26.928Z,23.73
2023-05-14T16:44:54.090Z,23.90
2023-05-14T16:47:21.266Z,23.65
2023-05-14T16:52:15.820Z,24.06
2023-05-14T16:54:42.984Z,24.03
2023-05-14T16:57:10.663Z,23.59
2023-05-14T16:59:37.859Z,23.63
2023-05-14T17:02:05.329Z,23.77
2023-05-14T17:04:33.533Z,24.13
2023-05-14T17:07:01.601Z,24.05
2023-05-14T17:09:28.749Z,24.30
2023-05-14T17:11:57.161Z,24.07
2023-05-14T17:14:24.974Z,24.10
2023-05-14T17:16:52.336Z,24.08
2023-05-14T17:19:19.630Z,23.96
2023-05-14T17:21:46.830Z,23.98
2023-05-14T17:24:14.146Z,23.78
2023-05-14T17:26:41.733Z,23.66
2023-05-14T17:29:09.288Z,23.57
2023-05-14T17:31:36.607Z,23.55
2023-05-14T17:34:04.007Z,23.31
2023-05-14T17:36:32.855Z,23.28
2023-05-14T17:39:00.168Z,23.23
2023-05-14T17:41:27.344Z,22.86
2023-05-14T17:43:54.624Z,22.81
2023-05-14T17:46:22.106Z,22.71
2023-05-14T17:48:52.396Z,22.68
2023-05-14T17:51:19.609Z,22.91
2023-05-14T17:53:46.746Z,22.84
2023-05-14T17:56:17.049Z,22.80
2023-05-14T17:58:45.203Z,22.39
2023-05-14T18:01:12.331Z,22.53
2023-05-14T18:03:39.525Z,22.10
2023-05-14T18:06:06.765Z,22.03
2023-05-14T18:08:33.899Z,21.57
2023-05-14T18:11:00.997Z,21.88
2023-05-14T18:13:28.298Z,21.72
2023-05-14T18:15:56.681Z,21.63
2023-05-14T18:18:24.075Z,21.54
2023-05-14T18:20:52.095Z,21.29
2023-05-14T18:23:19.373Z,21.28
2023-05-14T18:25:48.095Z,21.11
2023-05-14T18:28:15.777Z,21.21
2023-05-14T18:30:43.657Z,21.00
2023-05-14T18:33:11.168Z,20.88
2023-05-14T18:35:38.418Z,20.68
2023-05-14T18:38:08.890Z,20.69
2023-05-14T18:40:36.075Z,20.65
2023-05-14T18:43:03.286Z,20.64
2023-05-14T18:45:30.838Z,20.55
2023-05-14T18:47:58.078Z,20.55
2023-05-14T18:50:25.344Z,20.46
2023-05-14T18:52:52.867Z,20.34
2023-05-14T18:55:20.119Z,20.09
2023-05-14T18:57:47.223Z,20.11
2023-05-14T19:00:15.729Z,19.97
2023-05-14T19:02:42.929Z,19.90
2023-05-14T19:05:11.345Z,19.75
2023-05-14T19:07:38.869Z,19.77
2023-05-14T19:10:07.071Z,19.39
2023-05-14T19:12:36.472Z,19.58
2023-05-14T19:15:04.730Z,19.67
2023-05-14T19:17:32.835Z,19.63
2023-05-14T19:20:00.058Z,19.43
2023-05-14T19:22:27.194Z,19.39
2023-05-14T19:24:54.299Z,19.27
2023-05-14T19:27:21.606Z,19.24
2023-05-14T19:29:48.759Z,19.21
2023-05-14T19:32:16.389Z,18.99
2023-05-14T19:34:43.535Z,18.80
2023-05-14T19:37:11.754Z,18.84
2023-05-14T19:39:38.950Z,18.76
2023-05-14T19:42:07.951Z,18.79
2023-05-14T19:44:35.966Z,18.72
2023-05-14T19:47:03.584Z,18.65
2023-05-14T19:49:31.123Z,18.60
2023-05-14T19:51:58.353Z,18.49
2023-05-14T19:54:25.520Z,18.40
2023-05-14T19:56:54.808Z,18.44
2023-05-14T19:59:21.982Z,18.33
2023-05-14T20:01:50.253Z,18.23
2023-05-14T20:04:18.054Z,18.32
2023-05-14T20:06:45.513Z,18.20
2023-05-14T20:09:13.736Z,18.34
2023-05-14T20:11:41.145Z,18.33
2023-05-14T20:14:08.336Z,18.08
2023-05-14T20:16:36.228Z,18.14
2023-05-14T20:19:04.416Z,18.13
2023-05-14T20:21:32.240Z,17.90
2023-05-14T20:24:00.985Z,17.95
2023-05-14T20:26:28.122Z,18.08
2023-05-14T20:28:55.624Z,17.90
2023-05-14T20:31:23.127Z,17.98
2023-05-14T20:33:51.737Z,18.04
2023-05-14T20:36:19.224Z,17.70
2023-05-14T20:38:48.095Z,17.74
2023-05-14T20:41:15.599Z,17.59
2023-05-14T20:43:42.989Z,17.69
2023-05-14T20:46:10.177Z,17.70
2023-05-14T20:48:37.489Z,17.55
2023-05-14T20:51:06.713Z,17.52
2023-05-14T20:53:34.077Z,17.64
2023-05-14T20:56:01.589Z,17.53
2023-05-14T20:58:29.029Z,17.48
2023-05-14T21:00:57.549Z,17.48
2023-05-14T21:03:25.333Z,17.55
2023-05-14T21:05:53.377Z,17.41
2023-05-14T21:08:20.582Z,17.26
2023-05-14T21:10:48.268Z,17.22
2023-05-14T21:13:15.750Z,17.07
2023-05-14T21:15:43.081Z,17.05
2023-05-14T21:18:14.437Z,17.05
2023-05-14T21:20:41.720Z,16.92
2023-05-14T21:23:08.841Z,16.94
2023-05-14T21:25:36.135Z,16.96
2023-05-14T21:28:03.420Z,17.11
2023-05-14T21:30:30.945Z,17.14
2023-05-14T21:32:58.259Z,17.05
2023-05-14T21:35:25.644Z,17.17
2023-05-14T21:37:53.516Z,17.20
2023-05-14T21:40:20.706Z,17.20
2023-05-14T21:42:47.868Z,17.15
2023-05-14T21:45:15.396Z,17.04
2023-05-14T21:47:42.634Z,16.94
2023-05-14T21:50:10.002Z,17.00
2023-05-14T21:52:38.238Z,16.82
2023-05-14T21:55:05.917Z,16.92
2023-05-14T21:57:34.555Z,16.89
2023-05-14T22:00:03.718Z,16.78
2023-05-14T22:02:31.577Z,16.92
2023-05-14T22:04:58.679Z,16.97
2023-05-14T22:07:26.340Z,16.75
2023-05-14T22:09:53.437Z,16.88
2023-05-14T22:12:20.718Z,16.85
2023-05-14T22:14:47.846Z,16.85
2023-05-14T22:17:15.344Z,16.85
2023-05-14T22:19:42.550Z,16.64
2023-05-14T22:22:09.704Z,16.68
2023-05-14T22:24:36.932Z,16.61
2023-05-14T22:27:04.319Z,16.57
2023-05-14T22:29:31.693Z,16.43
2023-05-14T22:31:58.911Z,16.30
2023-05-14T22:34:26.035Z,16.27
2023-05-14T22:36:53.402Z,16.02
2023-05-14T22:39:20.671Z,16.23
2023-05-14T22:41:47.799Z,16.28
2023-05-14T22:44:15.153Z,16.22
2023-05-14T22:46:42.717Z,16.27
2023-05-14T22:49:09.863Z,16.22
2023-05-14T22:51:36.971Z,16.28
2023-05-14T22:54:04.281Z,16.09
2023-05-14T22:56:31.477Z,16.11
2023-05-14T22:59:02.371Z,16.09
2023-05-14T23:01:30.837Z,15.97
2023-05-14T23:03:58.038Z,16.15
2023-05-14T23:06:25.218Z,15.91
2023-05-14T23:08:52.301Z,15.80
2023-05-14T23:11:19.394Z,15.82
2023-05-14T23:13:46.458Z,15.82
2023-05-14T23:16:13.536Z,16.07
2023-05-14T23:18:41.098Z,15.89
2023-05-14T23:21:08.253Z,15.93
2023-05-14T23:23:36.119Z,15.88
2023-05-14T23:26:03.501Z,15.85
2023-05-14T23:28:31.685Z,15.81
2023-05-14T23:30:59.203Z,15.87
2023-05-14T23:33:26.692Z,15.87
2023-05-14T23:35:54.016Z,15.89
2023-05-14T23:38:21.151Z,15.84
2023-05-14T23:40:48.224Z,15.81
2023-05-14T23:43:15.969Z,15.81
2023-05-14T23:45:43.109Z,15.80
2023-05-14T23:48:10.347Z,15.79
2023-05-14T23:50:38.756Z,15.65
2023-05-14T23:53:05.978Z,15.55
2023-05-14T23:55:34.645Z,15.40
2023-05-14T23:58:01.796Z,15.43
